Meishomaru — JD3044 — position and weather

sailwx.info

Track history (hours):
 
Tides and Currents Weather Stations Pressure Air Temp Water Temp Dewpoint Dewpoint Depression Visibility Wind Speed Wind Dir Waves Ship Positions

Meishomaru

Last reported at 2014-Jul-31 19:31 UTC. Time now 2014-Jul-31 19:45 UTC.
Position N 34°54' E 139°60'.

Length 68 m; draft 2.6 m.

Type: Tanker. MMSI: 431001216.

Date/timePositionNaut miles runAvg speedWind from/ knotsBaromVisibWave heightAir tempDewpointWater temp
2014-Jul-31 19:31N 34°54' E 139°60'1010.5
2014-Jul-31 18:31N 34°59' E 140°10'21 9.8
2014-Jul-31 16:25N 35°13' E 140°30'1011.2
2014-Jul-31 15:30N 35°21' E 140°37'1312.3
2014-Jul-31 14:24N 35°32' E 140°47'1012.0
2014-Jul-31 13:32N 35°40' E 140°54'1511.3
2014-Jul-31 12:15N 35°53' E 140°47'5 7.2
2014-Jul-31 11:33N 35°56' E 140°42'2 0.2
2014-Jul-30 23:30N 35°54' E 140°41'5 0.5
2014-Jul-30 14:33N 35°54' E 140°47'4310.7
2014-Jul-30 10:32N 35°13' E 140°30'1414.0
2014-Jul-30 09:32N 35°04' E 140°17'1413.9
2014-Jul-30 08:33N 34°57' E 140°04'1311.5
2014-Jul-30 07:27N 34°53' E 139°49'910.0
2014-Jul-30 06:33N 35°00' E 139°43'1212.2
2014-Jul-30 05:33N 35°12' E 139°46'1111.0
2014-Jul-30 04:33N 35°23' E 139°42'1111.3
2014-Jul-30 03:33N 35°30' E 139°53'9 7.6
2014-Jul-30 02:23N 35°32' E 140°03'0 0.0
2014-Jul-30 01:23N 35°32' E 140°03'0 0.0
2014-Jul-30 00:23N 35°32' E 140°03'0 0.2
2014-Jul-29 23:34N 35°32' E 140°03'2 2.2
2014-Jul-29 22:33N 35°34' E 140°05'0 0.0
2014-Jul-29 21:33N 35°34' E 140°05'0 0.0
2014-Jul-29 20:30N 35°34' E 140°05'0 0.0
2014-Jul-29 19:33N 35°34' E 140°05'0 0.0
2014-Jul-29 18:27N 35°34' E 140°05'0 0.0
2014-Jul-29 17:27N 35°34' E 140°05'0 0.0
2014-Jul-29 16:30N 35°34' E 140°05'0 0.0
2014-Jul-29 15:33N 35°34' E 140°05'0 0.0
2014-Jul-29 14:33N 35°34' E 140°05'0 0.0
2014-Jul-29 13:24N 35°34' E 140°05'0 0.0
2014-Jul-29 12:33N 35°34' E 140°05'0 0.0
2014-Jul-29 11:33N 35°34' E 140°05'0 0.0
2014-Jul-29 10:33N 35°34' E 140°05'0 0.0
2014-Jul-29 09:33N 35°34' E 140°05'0 0.0
2014-Jul-29 08:33N 35°34' E 140°05'0 0.0
2014-Jul-29 07:33N 35°34' E 140°05'0 0.0
2014-Jul-29 06:27N 35°34' E 140°05'0 0.0
2014-Jul-29 05:33N 35°33' E 140°05'0 0.0
2014-Jul-29 04:33N 35°33' E 140°05'0 0.0
2014-Jul-29 03:33N 35°33' E 140°05'0 0.0
2014-Jul-29 02:33N 35°33' E 140°05'0 0.0
2014-Jul-29 01:33N 35°33' E 140°05'0 0.0
2014-Jul-29 00:33N 35°33' E 140°05'0 0.0
2014-Jul-28 23:33N 35°33' E 140°05'0 0.0
2014-Jul-28 22:27N 35°33' E 140°05'0 0.1
2014-Jul-28 21:33N 35°33' E 140°05'0 0.0
2014-Jul-28 20:27N 35°33' E 140°05'0 0.0
2014-Jul-28 19:27N 35°33' E 140°05'0 0.1
2014-Jul-28 18:33N 35°33' E 140°05'0 0.0
2014-Jul-28 17:33N 35°33' E 140°05'5 5.3
2014-Jul-28 16:33N 35°32' E 139°59'1212.1
2014-Jul-28 15:33N 35°25' E 139°47'1110.9
2014-Jul-28 14:33N 35°14' E 139°47'1212.0
2014-Jul-28 13:33N 35°02' E 139°45'17 7.7
2014-Jul-28 11:23N 34°57' E 140°04'8 9.1
2014-Jul-28 10:32N 35°00' E 140°12'20 9.1
2014-Jul-28 08:22N 35°13' E 140°31'2511.8
2014-Jul-28 06:15N 35°33' E 140°49'22 8.2
2014-Jul-28 03:30N 35°55' E 140°41'2 0.6
2014-Jul-28 00:19N 35°53' E 140°41'5 6.2
2014-Jul-27 23:27N 35°58' E 140°43'0 0.2
2014-Jul-27 21:12N 35°58' E 140°43'34 0.7
2014-Jul-25 21:29N 36°29' E 141°01'2711.8
2014-Jul-25 19:14N 36°02' E 140°59'812.0
2014-Jul-25 18:33N 35°54' E 140°58'1211.9
2014-Jul-25 17:33N 35°42' E 140°56'1211.6
2014-Jul-25 16:32N 35°32' E 140°49'1512.4
2014-Jul-25 15:18N 35°19' E 140°38'1012.2
2014-Jul-25 14:31N 35°12' E 140°31'1413.5
2014-Jul-25 13:31N 35°03' E 140°18'1313.2
2014-Jul-25 12:33N 34°56' E 140°05'1312.8
2014-Jul-25 11:31N 34°51' E 139°50'25210.5
2014-Jul-24 11:31N 34°03' E 134°50'5 0.2
2014-Jul-23 12:33N 33°59' E 134°55'21510.2
2014-Jul-22 15:33N 34°50' E 139°08'1211.9
2014-Jul-22 14:32N 34°58' E 139°20'1010.5
2014-Jul-22 13:33N 35°02' E 139°31'1110.9
2014-Jul-22 12:33N 35°08' E 139°42'1010.4
2014-Jul-22 11:33N 35°18' E 139°44'10 9.8
2014-Jul-22 10:33N 35°28' E 139°48'1010.4
2014-Jul-22 09:33N 35°29' E 140°01'0 0.3
2014-Jul-22 08:29N 35°29' E 140°01'0 0.0
2014-Jul-22 07:32N 35°29' E 140°01'0 0.0
2014-Jul-22 06:32N 35°29' E 140°01'0 0.0
2014-Jul-22 05:32N 35°29' E 140°01'0 0.0
2014-Jul-22 04:32N 35°29' E 140°01'5 5.2
2014-Jul-22 03:33N 35°29' E 139°55'0 0.1
2014-Jul-22 02:33N 35°29' E 139°55'0 0.0
2014-Jul-22 01:33N 35°29' E 139°55'0 0.0
2014-Jul-22 00:33N 35°29' E 139°55'0 0.0
2014-Jul-21 23:27N 35°29' E 139°55'0 0.1
2014-Jul-21 22:33N 35°29' E 139°55'0 0.0
2014-Jul-21 21:33N 35°29' E 139°55'0 0.0
2014-Jul-21 20:30N 35°29' E 139°55'0 0.0
2014-Jul-21 20:18N 35°29' E 139°55'0 0.0
2014-Jul-21 19:33N 35°29' E 139°55'  
Track history (hours):
 
Tides and Currents Weather Stations Pressure Air Temp Water Temp Dewpoint Dewpoint Depression Visibility Wind Speed Wind Dir Waves Ship Positions

Meishomaru

Last reported at 2014-Jul-31 19:31 UTC. Time now 2014-Jul-31 19:45 UTC.
Position N 34°54' E 139°60'.

Length 68 m; draft 2.6 m.

Type: Tanker. MMSI: 431001216.

Date/timePositionNaut miles runAvg speedWind from/ knotsBaromVisibWave heightAir tempDewpointWater temp
2014-Jul-31 19:31N 34°54' E 139°60'1010.5
2014-Jul-31 18:31N 34°59' E 140°10'21 9.8
2014-Jul-31 16:25N 35°13' E 140°30'1011.2
2014-Jul-31 15:30N 35°21' E 140°37'1312.3
2014-Jul-31 14:24N 35°32' E 140°47'1012.0
2014-Jul-31 13:32N 35°40' E 140°54'1511.3
2014-Jul-31 12:15N 35°53' E 140°47'5 7.2
2014-Jul-31 11:33N 35°56' E 140°42'2 0.2
2014-Jul-30 23:30N 35°54' E 140°41'5 0.5
2014-Jul-30 14:33N 35°54' E 140°47'4310.7
2014-Jul-30 10:32N 35°13' E 140°30'1414.0
2014-Jul-30 09:32N 35°04' E 140°17'1413.9
2014-Jul-30 08:33N 34°57' E 140°04'1311.5
2014-Jul-30 07:27N 34°53' E 139°49'910.0
2014-Jul-30 06:33N 35°00' E 139°43'1212.2
2014-Jul-30 05:33N 35°12' E 139°46'1111.0
2014-Jul-30 04:33N 35°23' E 139°42'1111.3
2014-Jul-30 03:33N 35°30' E 139°53'9 7.6
2014-Jul-30 02:23N 35°32' E 140°03'0 0.0
2014-Jul-30 01:23N 35°32' E 140°03'0 0.0
2014-Jul-30 00:23N 35°32' E 140°03'0 0.2
2014-Jul-29 23:34N 35°32' E 140°03'2 2.2
2014-Jul-29 22:33N 35°34' E 140°05'0 0.0
2014-Jul-29 21:33N 35°34' E 140°05'0 0.0
2014-Jul-29 20:30N 35°34' E 140°05'0 0.0
2014-Jul-29 19:33N 35°34' E 140°05'0 0.0
2014-Jul-29 18:27N 35°34' E 140°05'0 0.0
2014-Jul-29 17:27N 35°34' E 140°05'0 0.0
2014-Jul-29 16:30N 35°34' E 140°05'0 0.0
2014-Jul-29 15:33N 35°34' E 140°05'0 0.0
2014-Jul-29 14:33N 35°34' E 140°05'0 0.0
2014-Jul-29 13:24N 35°34' E 140°05'0 0.0
2014-Jul-29 12:33N 35°34' E 140°05'0 0.0
2014-Jul-29 11:33N 35°34' E 140°05'0 0.0
2014-Jul-29 10:33N 35°34' E 140°05'0 0.0
2014-Jul-29 09:33N 35°34' E 140°05'0 0.0
2014-Jul-29 08:33N 35°34' E 140°05'0 0.0
2014-Jul-29 07:33N 35°34' E 140°05'0 0.0
2014-Jul-29 06:27N 35°34' E 140°05'0 0.0
2014-Jul-29 05:33N 35°33' E 140°05'0 0.0
2014-Jul-29 04:33N 35°33' E 140°05'0 0.0
2014-Jul-29 03:33N 35°33' E 140°05'0 0.0
2014-Jul-29 02:33N 35°33' E 140°05'0 0.0
2014-Jul-29 01:33N 35°33' E 140°05'0 0.0
2014-Jul-29 00:33N 35°33' E 140°05'0 0.0
2014-Jul-28 23:33N 35°33' E 140°05'0 0.0
2014-Jul-28 22:27N 35°33' E 140°05'0 0.1
2014-Jul-28 21:33N 35°33' E 140°05'0 0.0
2014-Jul-28 20:27N 35°33' E 140°05'0 0.0
2014-Jul-28 19:27N 35°33' E 140°05'0 0.1
2014-Jul-28 18:33N 35°33' E 140°05'0 0.0
2014-Jul-28 17:33N 35°33' E 140°05'5 5.3
2014-Jul-28 16:33N 35°32' E 139°59'1212.1
2014-Jul-28 15:33N 35°25' E 139°47'1110.9
2014-Jul-28 14:33N 35°14' E 139°47'1212.0
2014-Jul-28 13:33N 35°02' E 139°45'17 7.7
2014-Jul-28 11:23N 34°57' E 140°04'8 9.1
2014-Jul-28 10:32N 35°00' E 140°12'20 9.1
2014-Jul-28 08:22N 35°13' E 140°31'2511.8
2014-Jul-28 06:15N 35°33' E 140°49'22 8.2
2014-Jul-28 03:30N 35°55' E 140°41'2 0.6
2014-Jul-28 00:19N 35°53' E 140°41'5 6.2
2014-Jul-27 23:27N 35°58' E 140°43'0 0.2
2014-Jul-27 21:12N 35°58' E 140°43'34 0.7
2014-Jul-25 21:29N 36°29' E 141°01'2711.8
2014-Jul-25 19:14N 36°02' E 140°59'812.0
2014-Jul-25 18:33N 35°54' E 140°58'1211.9
2014-Jul-25 17:33N 35°42' E 140°56'1211.6
2014-Jul-25 16:32N 35°32' E 140°49'1512.4
2014-Jul-25 15:18N 35°19' E 140°38'1012.2
2014-Jul-25 14:31N 35°12' E 140°31'1413.5
2014-Jul-25 13:31N 35°03' E 140°18'1313.2
2014-Jul-25 12:33N 34°56' E 140°05'1312.8
2014-Jul-25 11:31N 34°51' E 139°50'25210.5
2014-Jul-24 11:31N 34°03' E 134°50'5 0.2
2014-Jul-23 12:33N 33°59' E 134°55'21510.2
2014-Jul-22 15:33N 34°50' E 139°08'1211.9
2014-Jul-22 14:32N 34°58' E 139°20'1010.5
2014-Jul-22 13:33N 35°02' E 139°31'1110.9
2014-Jul-22 12:33N 35°08' E 139°42'1010.4
2014-Jul-22 11:33N 35°18' E 139°44'10 9.8
2014-Jul-22 10:33N 35°28' E 139°48'1010.4
2014-Jul-22 09:33N 35°29' E 140°01'0 0.3
2014-Jul-22 08:29N 35°29' E 140°01'0 0.0
2014-Jul-22 07:32N 35°29' E 140°01'0 0.0
2014-Jul-22 06:32N 35°29' E 140°01'0 0.0
2014-Jul-22 05:32N 35°29' E 140°01'0 0.0
2014-Jul-22 04:32N 35°29' E 140°01'5 5.2
2014-Jul-22 03:33N 35°29' E 139°55'0 0.1
2014-Jul-22 02:33N 35°29' E 139°55'0 0.0
2014-Jul-22 01:33N 35°29' E 139°55'0 0.0
2014-Jul-22 00:33N 35°29' E 139°55'0 0.0
2014-Jul-21 23:27N 35°29' E 139°55'0 0.1
2014-Jul-21 22:33N 35°29' E 139°55'0 0.0
2014-Jul-21 21:33N 35°29' E 139°55'0 0.0
2014-Jul-21 20:30N 35°29' E 139°55'0 0.0
2014-Jul-21 20:18N 35°29' E 139°55'0 0.0
2014-Jul-21 19:33N 35°29' E 139°55'  

Dump ship's entire track history